createdAt,value
2024-01-26T00:00:32.841Z,4.34
2024-01-26T00:03:04.365Z,4.33
2024-01-26T00:05:37.216Z,4.35
2024-01-26T00:08:10.885Z,4.37
2024-01-26T00:10:41.794Z,4.40
2024-01-26T00:13:12.600Z,4.35
2024-01-26T00:15:43.327Z,4.33
2024-01-26T00:18:13.713Z,4.27
2024-01-26T00:20:46.543Z,4.24
2024-01-26T00:23:16.846Z,4.23
2024-01-26T00:25:46.991Z,4.30
2024-01-26T00:28:17.251Z,4.28
2024-01-26T00:30:47.648Z,4.33
2024-01-26T00:33:17.921Z,4.30
2024-01-26T00:35:50.728Z,4.37
2024-01-26T00:38:21.265Z,4.40
2024-01-26T00:40:52.248Z,4.34
2024-01-26T00:43:22.613Z,4.31
2024-01-26T00:45:52.843Z,4.29
2024-01-26T00:48:23.212Z,4.30
2024-01-26T00:50:56.573Z,4.30
2024-01-26T00:53:26.973Z,4.27
2024-01-26T00:55:57.199Z,4.22
2024-01-26T00:58:27.380Z,4.21
2024-01-26T01:00:57.775Z,4.22
2024-01-26T01:03:28.269Z,4.23
2024-01-26T01:06:01.815Z,4.32
2024-01-26T01:08:32.200Z,4.20
2024-01-26T01:11:02.425Z,4.17
2024-01-26T01:13:32.742Z,4.14
2024-01-26T01:16:03.445Z,4.15
2024-01-26T01:18:33.797Z,4.17
2024-01-26T01:21:07.612Z,4.18
2024-01-26T01:23:37.965Z,4.15
2024-01-26T01:26:08.215Z,4.20
2024-01-26T01:28:38.443Z,4.13
2024-01-26T01:31:08.628Z,4.19
2024-01-26T01:33:39.091Z,4.20
2024-01-26T01:36:12.270Z,4.22
2024-01-26T01:38:42.577Z,4.24
2024-01-26T01:41:12.881Z,4.20
2024-01-26T01:43:43.157Z,4.21
2024-01-26T01:46:13.755Z,4.26
2024-01-26T01:48:44.098Z,4.25
2024-01-26T01:51:17.260Z,4.21
2024-01-26T01:53:47.717Z,4.13
2024-01-26T01:56:19.456Z,4.15
2024-01-26T01:58:49.796Z,4.10
2024-01-26T02:01:20.578Z,4.04
2024-01-26T02:03:50.832Z,4.03
2024-01-26T02:06:21.148Z,4.08
2024-01-26T02:08:51.525Z,4.08
2024-01-26T02:11:21.768Z,4.15
2024-01-26T02:13:51.922Z,4.19
2024-01-26T02:16:22.202Z,4.17
2024-01-26T02:18:52.824Z,4.13
2024-01-26T02:21:25.773Z,4.17
2024-01-26T02:23:58.656Z,4.06
2024-01-26T02:26:28.870Z,4.03
2024-01-26T02:28:59.050Z,3.98
2024-01-26T02:31:29.223Z,3.90
2024-01-26T02:33:59.500Z,3.95
2024-01-26T02:36:30.685Z,4.00
2024-01-26T02:39:03.804Z,4.13
2024-01-26T02:41:34.062Z,4.09
2024-01-26T02:44:04.381Z,4.12
2024-01-26T02:46:34.554Z,4.15
2024-01-26T02:49:05.778Z,4.18
2024-01-26T02:51:36.196Z,4.16
2024-01-26T02:54:09.109Z,4.15
2024-01-26T02:56:39.438Z,4.20
2024-01-26T02:59:09.641Z,4.23
2024-01-26T03:01:39.911Z,4.30
2024-01-26T03:04:10.377Z,4.28
2024-01-26T03:06:40.701Z,4.24
2024-01-26T03:09:13.590Z,4.18
2024-01-26T03:11:46.558Z,4.24
2024-01-26T03:14:17.979Z,4.31
2024-01-26T03:16:48.240Z,4.24
2024-01-26T03:19:21.482Z,4.20
2024-01-26T03:21:51.815Z,4.13
2024-01-26T03:24:24.919Z,4.17
2024-01-26T03:26:56.033Z,4.14
2024-01-26T03:29:26.220Z,3.99
2024-01-26T03:31:56.441Z,3.98
2024-01-26T03:34:26.744Z,4.00
2024-01-26T03:36:56.946Z,3.96
2024-01-26T03:39:29.783Z,3.90
2024-01-26T03:42:00.241Z,3.88
2024-01-26T03:44:30.543Z,3.83
2024-01-26T03:47:00.765Z,3.79
2024-01-26T03:49:30.971Z,3.74
2024-01-26T03:52:01.226Z,3.69
2024-01-26T03:54:33.960Z,3.69
2024-01-26T03:57:04.249Z,3.73
2024-01-26T03:59:34.453Z,3.71
2024-01-26T04:02:04.774Z,3.80
2024-01-26T04:04:35.521Z,3.82
2024-01-26T04:07:05.831Z,3.79
2024-01-26T04:09:38.608Z,3.81
2024-01-26T04:12:10.110Z,3.81
2024-01-26T04:14:40.454Z,3.74
2024-01-26T04:17:10.663Z,3.78
2024-01-26T04:19:40.951Z,3.74
2024-01-26T04:22:11.193Z,3.69
2024-01-26T04:24:43.998Z,3.65
2024-01-26T04:27:14.321Z,3.67
2024-01-26T04:29:44.546Z,3.71
2024-01-26T04:32:14.894Z,3.66
2024-01-26T04:34:46.604Z,3.78
2024-01-26T04:37:16.910Z,3.78
2024-01-26T04:39:52.240Z,3.73
2024-01-26T04:42:24.527Z,3.74
2024-01-26T04:44:55.842Z,3.69
2024-01-26T04:47:26.151Z,3.74
2024-01-26T04:49:56.476Z,3.72
2024-01-26T04:52:28.126Z,3.79
2024-01-26T04:55:01.047Z,3.76
2024-01-26T04:57:31.260Z,3.75
2024-01-26T05:00:01.487Z,3.72
2024-01-26T05:02:32.120Z,3.66
2024-01-26T05:05:02.434Z,3.65
2024-01-26T05:07:32.576Z,3.56
2024-01-26T05:10:06.670Z,3.54
2024-01-26T05:12:37.748Z,3.48
2024-01-26T05:15:08.991Z,3.47
2024-01-26T05:17:39.450Z,3.49
2024-01-26T05:20:11.253Z,3.42
2024-01-26T05:22:41.497Z,3.43
2024-01-26T05:25:14.585Z,3.44
2024-01-26T05:27:44.829Z,3.46
2024-01-26T05:30:16.044Z,3.57
2024-01-26T05:32:46.695Z,3.52
2024-01-26T05:35:17.102Z,3.44
2024-01-26T05:37:47.423Z,3.43
2024-01-26T05:40:20.396Z,3.32
2024-01-26T05:42:50.637Z,3.21
2024-01-26T05:45:21.200Z,3.29
2024-01-26T05:47:51.664Z,3.27
2024-01-26T05:50:22.836Z,3.24
2024-01-26T05:52:54.312Z,3.17
2024-01-26T05:55:27.158Z,3.14
2024-01-26T05:57:57.513Z,3.06
2024-01-26T06:00:28.119Z,3.08
2024-01-26T06:02:58.500Z,3.02
2024-01-26T06:05:28.712Z,2.88
2024-01-26T06:08:00.719Z,2.80
2024-01-26T06:10:33.555Z,2.75
2024-01-26T06:13:04.015Z,2.60
2024-01-26T06:15:34.373Z,2.49
2024-01-26T06:18:04.686Z,2.37
2024-01-26T06:20:35.551Z,2.29
2024-01-26T06:23:06.093Z,2.24
2024-01-26T06:25:38.862Z,2.14
2024-01-26T06:28:09.549Z,2.14
2024-01-26T06:30:39.969Z,2.02
2024-01-26T06:33:10.257Z,1.89
2024-01-26T06:35:40.584Z,1.77
2024-01-26T06:38:10.859Z,1.68
2024-01-26T06:40:43.819Z,1.51
2024-01-26T06:43:16.681Z,1.29
2024-01-26T06:45:47.703Z,1.20
2024-01-26T06:48:18.008Z,1.21
2024-01-26T06:50:48.336Z,1.18
2024-01-26T06:53:18.542Z,1.16
2024-01-26T06:55:53.610Z,1.38
2024-01-26T06:58:24.125Z,1.42
2024-01-26T07:00:54.382Z,1.43
2024-01-26T07:03:24.846Z,1.37
2024-01-26T07:05:55.217Z,1.33
2024-01-26T07:08:25.521Z,1.08
2024-01-26T07:10:58.297Z,1.00
2024-01-26T07:13:28.554Z,0.90
2024-01-26T07:15:58.809Z,0.74
2024-01-26T07:18:29.147Z,0.68
2024-01-26T07:20:59.756Z,0.69
2024-01-26T07:23:29.901Z,0.75
2024-01-26T07:26:02.704Z,0.77
2024-01-26T07:28:32.918Z,0.93
2024-01-26T07:31:03.287Z,0.88
2024-01-26T07:33:33.721Z,1.09
2024-01-26T07:36:04.038Z,1.31
2024-01-26T07:38:34.422Z,1.52
2024-01-26T07:41:07.632Z,1.57
2024-01-26T07:43:37.893Z,1.60
2024-01-26T07:46:08.215Z,1.79
2024-01-26T07:48:38.619Z,1.92
2024-01-26T07:51:09.086Z,1.93
2024-01-26T07:53:39.356Z,1.96
2024-01-26T07:56:12.742Z,1.94
2024-01-26T07:58:43.223Z,1.98
2024-01-26T08:01:15.566Z,2.17
2024-01-26T08:03:47.072Z,2.38
2024-01-26T08:06:18.871Z,2.44
2024-01-26T08:08:49.585Z,2.78
2024-01-26T08:11:24.960Z,3.08
2024-01-26T08:13:55.237Z,3.15
2024-01-26T08:16:25.553Z,3.22
2024-01-26T08:18:56.091Z,3.29
2024-01-26T08:21:26.930Z,3.35
2024-01-26T08:23:57.333Z,3.40
2024-01-26T08:26:31.821Z,3.47
2024-01-26T08:29:02.514Z,3.56
2024-01-26T08:31:32.747Z,3.73
2024-01-26T08:34:03.095Z,3.81
2024-01-26T08:36:33.532Z,3.84
2024-01-26T08:39:03.790Z,3.82
2024-01-26T08:41:38.914Z,3.90
2024-01-26T08:44:10.401Z,4.02
2024-01-26T08:46:41.037Z,4.11
2024-01-26T08:49:11.669Z,4.15
2024-01-26T08:51:42.283Z,4.17
2024-01-26T08:54:14.294Z,4.24
2024-01-26T08:56:47.599Z,4.25
2024-01-26T08:59:17.894Z,4.28
2024-01-26T09:01:48.309Z,4.31
2024-01-26T09:04:18.644Z,4.32
2024-01-26T09:06:54.766Z,4.37
2024-01-26T09:09:27.978Z,4.43
2024-01-26T09:12:00.901Z,4.51
2024-01-26T09:14:31.210Z,4.61
2024-01-26T09:17:02.232Z,4.68
2024-01-26T09:19:32.652Z,4.84
2024-01-26T09:22:04.641Z,5.01
2024-01-26T09:24:35.487Z,5.18
2024-01-26T09:27:08.641Z,5.23
2024-01-26T09:29:39.052Z,5.29
2024-01-26T09:32:09.835Z,5.30
2024-01-26T09:34:40.179Z,5.35
2024-01-26T09:37:10.577Z,5.46
2024-01-26T09:39:40.756Z,5.59
2024-01-26T09:42:13.656Z,5.67
2024-01-26T09:44:44.020Z,5.73
2024-01-26T09:47:17.690Z,5.76
2024-01-26T09:49:50.459Z,5.82
2024-01-26T09:52:22.815Z,5.86
2024-01-26T09:54:54.399Z,5.86
2024-01-26T09:57:27.282Z,5.85
2024-01-26T09:59:57.846Z,5.90
2024-01-26T10:02:29.004Z,5.80
2024-01-26T10:04:59.357Z,5.88
2024-01-26T10:07:29.713Z,5.97
2024-01-26T10:10:00.034Z,6.00
2024-01-26T10:12:33.518Z,6.02
2024-01-26T10:15:09.255Z,6.03
2024-01-26T10:17:40.333Z,6.09
2024-01-26T10:20:10.296Z,6.10
2024-01-26T10:22:41.404Z,6.09
2024-01-26T10:25:12.651Z,6.19
2024-01-26T10:27:45.776Z,6.23
2024-01-26T10:30:16.701Z,6.31
2024-01-26T10:32:48.716Z,6.03
2024-01-26T10:35:23.757Z,6.16
2024-01-26T10:37:54.294Z,6.02
2024-01-26T10:40:25.062Z,6.14
2024-01-26T10:42:59.044Z,6.12
2024-01-26T10:45:29.443Z,6.24
2024-01-26T10:48:00.689Z,6.26
2024-01-26T10:50:32.014Z,6.31
2024-01-26T10:53:02.663Z,6.35
2024-01-26T10:55:33.612Z,6.47
2024-01-26T10:58:06.986Z,6.46
2024-01-26T11:00:37.760Z,6.52
2024-01-26T11:03:08.659Z,6.57
2024-01-26T11:05:39.309Z,6.46
2024-01-26T11:08:15.157Z,6.58
2024-01-26T11:10:45.637Z,6.65
2024-01-26T11:13:19.748Z,6.70
2024-01-26T11:15:51.056Z,6.73
2024-01-26T11:18:28.073Z,6.80
2024-01-26T11:20:58.913Z,6.77
2024-01-26T11:23:29.059Z,6.90
2024-01-26T11:26:01.732Z,6.95
2024-01-26T11:28:34.570Z,7.01
2024-01-26T11:31:05.722Z,6.95
2024-01-26T11:33:39.744Z,6.95
2024-01-26T11:36:13.902Z,6.71
2024-01-26T11:38:46.875Z,6.86
2024-01-26T11:41:17.455Z,6.87
2024-01-26T11:43:51.617Z,6.92
2024-01-26T11:46:22.402Z,6.85
2024-01-26T11:48:54.750Z,6.95
2024-01-26T11:51:25.841Z,6.93
2024-01-26T11:53:56.388Z,6.90
2024-01-26T11:56:26.729Z,6.85
2024-01-26T11:59:00.602Z,6.94
2024-01-26T12:01:30.890Z,7.09
2024-01-26T12:04:01.183Z,7.19
2024-01-26T12:06:31.677Z,7.22
2024-01-26T12:09:02.488Z,7.17
2024-01-26T12:11:45.497Z,7.27
2024-01-26T12:14:18.441Z,7.20
2024-01-26T12:16:48.717Z,7.26
2024-01-26T12:19:19.658Z,7.26
2024-01-26T12:21:51.268Z,7.09
2024-01-26T12:24:21.515Z,7.05
2024-01-26T12:26:51.830Z,7.15
2024-01-26T12:29:25.150Z,7.32
2024-01-26T12:31:55.452Z,7.31
2024-01-26T12:34:25.810Z,7.47
2024-01-26T12:37:01.669Z,7.58
2024-01-26T12:39:32.285Z,7.61
2024-01-26T12:42:02.762Z,7.82
2024-01-26T12:47:11.106Z,7.96
2024-01-26T12:49:41.323Z,7.76
2024-01-26T12:52:12.327Z,7.78
2024-01-26T12:54:43.207Z,7.69
2024-01-26T12:57:13.596Z,7.71
2024-01-26T12:59:46.468Z,7.69
2024-01-26T13:02:16.851Z,7.60
2024-01-26T13:04:51.402Z,7.59
2024-01-26T13:07:22.671Z,7.62
2024-01-26T13:09:52.927Z,7.66
2024-01-26T13:12:23.825Z,7.64
2024-01-26T13:14:56.688Z,7.59
2024-01-26T13:17:27.909Z,7.64
2024-01-26T13:20:05.079Z,7.63
2024-01-26T13:22:42.481Z,7.67
2024-01-26T13:25:12.880Z,7.73
2024-01-26T13:27:43.224Z,7.68
2024-01-26T13:30:17.277Z,7.70
2024-01-26T13:32:49.495Z,7.68
2024-01-26T13:35:20.261Z,7.63
2024-01-26T13:37:50.498Z,7.64
2024-01-26T13:40:20.821Z,7.66
2024-01-26T13:42:51.056Z,7.54
2024-01-26T13:45:26.323Z,7.56
2024-01-26T13:48:01.135Z,7.56
2024-01-26T13:50:35.400Z,7.57
2024-01-26T13:53:05.816Z,7.57
2024-01-26T13:55:37.080Z,7.57
2024-01-26T13:58:08.980Z,7.58
2024-01-26T14:00:41.906Z,7.55
2024-01-26T14:03:12.237Z,7.40
2024-01-26T14:05:42.709Z,7.28
2024-01-26T14:08:13.225Z,7.27
2024-01-26T14:10:44.216Z,7.28
2024-01-26T14:13:14.458Z,7.25
2024-01-26T14:15:47.245Z,7.33
2024-01-26T14:18:17.845Z,7.27
2024-01-26T14:20:48.358Z,7.27
2024-01-26T14:23:18.523Z,7.36
2024-01-26T14:25:52.125Z,7.32
2024-01-26T14:28:22.915Z,7.40
2024-01-26T14:30:55.850Z,7.35
2024-01-26T14:33:26.169Z,7.40
2024-01-26T14:35:56.562Z,7.25
2024-01-26T14:38:27.486Z,7.12
2024-01-26T14:40:57.724Z,7.12
2024-01-26T14:43:28.078Z,7.04
2024-01-26T14:46:00.941Z,6.99
2024-01-26T14:48:31.297Z,6.97
2024-01-26T14:51:01.707Z,6.99
2024-01-26T14:53:32.005Z,6.95
2024-01-26T14:56:02.245Z,6.94
2024-01-26T14:58:32.778Z,6.95
2024-01-26T15:01:05.667Z,6.88
2024-01-26T15:03:37.491Z,6.84
2024-01-26T15:06:09.776Z,6.86
2024-01-26T15:08:40.499Z,6.88
2024-01-26T15:11:10.680Z,6.78
2024-01-26T15:13:41.300Z,6.77
2024-01-26T15:16:16.874Z,6.75
2024-01-26T15:18:47.325Z,6.74
2024-01-26T15:21:22.051Z,6.80
2024-01-26T15:23:52.390Z,6.84
2024-01-26T15:26:22.616Z,6.89
2024-01-26T15:28:53.036Z,6.89
2024-01-26T15:31:28.856Z,6.88
2024-01-26T15:33:59.207Z,6.92
2024-01-26T15:36:32.886Z,6.90
2024-01-26T15:39:04.602Z,6.90
2024-01-26T15:41:36.408Z,6.91
2024-01-26T15:44:10.461Z,6.90
2024-01-26T15:46:43.331Z,6.82
2024-01-26T15:49:13.979Z,6.90
2024-01-26T15:51:44.326Z,6.91
2024-01-26T15:54:14.626Z,6.97
2024-01-26T15:56:44.932Z,6.98
2024-01-26T15:59:15.980Z,6.95
2024-01-26T16:01:48.822Z,6.97
2024-01-26T16:04:19.225Z,6.98
2024-01-26T16:06:50.662Z,7.01
2024-01-26T16:09:21.469Z,7.05
2024-01-26T16:11:51.732Z,7.01
2024-01-26T16:14:22.028Z,6.98
2024-01-26T16:16:54.863Z,7.01
2024-01-26T16:19:25.319Z,7.02
2024-01-26T16:21:55.646Z,6.97
2024-01-26T16:24:25.884Z,7.00
2024-01-26T16:26:56.186Z,7.01
2024-01-26T16:29:26.997Z,7.03
2024-01-26T16:32:00.051Z,7.03
2024-01-26T16:34:30.309Z,7.09
2024-01-26T16:37:00.592Z,7.14
2024-01-26T16:39:31.687Z,7.09
2024-01-26T16:42:04.343Z,7.02
2024-01-26T16:44:34.759Z,7.02
2024-01-26T16:47:08.047Z,7.07
2024-01-26T16:49:38.393Z,7.05
2024-01-26T16:52:11.655Z,7.05
2024-01-26T16:54:41.928Z,7.11
2024-01-26T16:57:12.122Z,7.18
2024-01-26T16:59:43.091Z,7.15
2024-01-26T17:02:15.911Z,7.15
2024-01-26T17:04:46.265Z,7.16
2024-01-26T17:07:16.414Z,7.20
2024-01-26T17:09:46.770Z,7.32
2024-01-26T17:12:17.067Z,7.40
2024-01-26T17:14:47.436Z,7.46
2024-01-26T17:17:20.345Z,7.43
2024-01-26T17:19:53.063Z,7.45
2024-01-26T17:22:23.983Z,7.48
2024-01-26T17:24:55.135Z,7.50
2024-01-26T17:27:25.381Z,7.46
2024-01-26T17:29:55.668Z,7.50
2024-01-26T17:32:28.524Z,7.54
2024-01-26T17:35:00.613Z,7.56
2024-01-26T17:37:30.892Z,7.52
2024-01-26T17:40:03.441Z,7.49
2024-01-26T17:42:34.365Z,7.35
2024-01-26T17:45:04.630Z,7.34
2024-01-26T17:47:37.560Z,7.30
2024-01-26T17:50:10.043Z,7.37
2024-01-26T17:52:40.688Z,7.46
2024-01-26T17:55:11.509Z,7.57
2024-01-26T17:57:41.776Z,7.60
2024-01-26T18:00:13.341Z,7.63
2024-01-26T18:02:46.308Z,7.60
2024-01-26T18:05:21.031Z,7.62
2024-01-26T18:07:51.373Z,7.68
2024-01-26T18:10:23.091Z,7.73
2024-01-26T18:13:16.410Z,7.76
2024-01-26T18:15:47.805Z,7.81
2024-01-26T18:18:20.763Z,7.81
2024-01-26T18:20:51.096Z,7.80
2024-01-26T18:23:21.539Z,7.83
2024-01-26T18:25:51.694Z,7.84
2024-01-26T18:28:21.861Z,7.82
2024-01-26T18:30:52.071Z,7.84
2024-01-26T18:33:25.387Z,7.75
2024-01-26T18:35:55.916Z,7.74
2024-01-26T18:38:26.368Z,7.71
2024-01-26T18:40:56.682Z,7.70
2024-01-26T18:43:27.071Z,7.80
2024-01-26T18:45:57.720Z,7.82
2024-01-26T18:48:30.645Z,7.75
2024-01-26T18:51:01.051Z,7.80
2024-01-26T18:53:31.267Z,7.63
2024-01-26T18:56:01.523Z,7.55
2024-01-26T18:58:31.818Z,7.45
2024-01-26T19:01:02.620Z,7.37
2024-01-26T19:03:35.660Z,7.29
2024-01-26T19:06:07.092Z,7.25
2024-01-26T19:08:37.926Z,7.26
2024-01-26T19:11:08.721Z,7.35
2024-01-26T19:13:41.575Z,7.32
2024-01-26T19:16:16.705Z,7.23
2024-01-26T19:18:51.796Z,7.26
2024-01-26T19:21:23.820Z,7.25
2024-01-26T19:23:55.051Z,7.21
2024-01-26T19:26:25.364Z,7.25
2024-01-26T19:28:55.765Z,7.35
2024-01-26T19:31:27.850Z,7.26
2024-01-26T19:34:00.778Z,7.23
2024-01-26T19:36:32.085Z,7.29
2024-01-26T19:39:02.359Z,7.23
2024-01-26T19:41:32.783Z,7.20
2024-01-26T19:44:03.303Z,7.14
2024-01-26T19:46:33.583Z,7.05
2024-01-26T19:49:07.617Z,6.95
2024-01-26T19:51:37.922Z,6.91
2024-01-26T19:54:08.465Z,6.89
2024-01-26T19:56:40.737Z,6.85
2024-01-26T19:59:10.961Z,6.79
2024-01-26T20:01:41.136Z,6.81
2024-01-26T20:04:14.165Z,6.76
2024-01-26T20:06:44.498Z,6.73
2024-01-26T20:09:15.049Z,6.61
2024-01-26T20:11:45.911Z,6.65
2024-01-26T20:14:16.258Z,6.58
2024-01-26T20:16:46.833Z,6.59
2024-01-26T20:19:19.966Z,6.51
2024-01-26T20:21:50.263Z,6.45
2024-01-26T20:24:20.696Z,6.49
2024-01-26T20:26:51.636Z,6.46
2024-01-26T20:29:19.606Z,6.45
2024-01-26T20:31:50.315Z,6.46
2024-01-26T20:34:23.890Z,6.55
2024-01-26T20:36:54.396Z,6.44
2024-01-26T20:39:24.776Z,6.45
2024-01-26T20:41:55.706Z,6.54
2024-01-26T20:44:26.315Z,6.52
2024-01-26T20:46:56.603Z,6.52
2024-01-26T20:49:29.642Z,6.54
2024-01-26T20:52:00.263Z,6.47
2024-01-26T20:54:31.070Z,6.43
2024-01-26T20:57:01.432Z,6.32
2024-01-26T20:59:31.602Z,6.21
2024-01-26T21:02:02.643Z,6.17
2024-01-26T21:04:35.808Z,6.16
2024-01-26T21:07:06.610Z,6.17
2024-01-26T21:09:38.979Z,6.11
2024-01-26T21:12:09.896Z,6.08
2024-01-26T21:14:40.437Z,6.07
2024-01-26T21:17:10.673Z,6.10
2024-01-26T21:19:46.897Z,6.06
2024-01-26T21:22:17.334Z,5.96
2024-01-26T21:24:47.519Z,5.96
2024-01-26T21:27:18.002Z,5.94
2024-01-26T21:29:52.836Z,5.90
2024-01-26T21:32:23.575Z,5.81
2024-01-26T21:34:56.747Z,5.80
2024-01-26T21:37:27.146Z,5.70
2024-01-26T21:39:57.395Z,5.71
2024-01-26T21:42:27.814Z,5.83
2024-01-26T21:44:58.383Z,5.80
2024-01-26T21:47:28.763Z,5.80
2024-01-26T21:50:02.420Z,5.77
2024-01-26T21:52:33.129Z,5.49
2024-01-26T21:55:03.447Z,4.90
2024-01-26T21:57:33.791Z,4.70
2024-01-26T22:00:04.681Z,4.62
2024-01-26T22:02:35.519Z,4.55
2024-01-26T22:05:11.069Z,4.53
2024-01-26T22:07:41.522Z,4.56
2024-01-26T22:10:12.358Z,4.74
2024-01-26T22:12:42.677Z,4.84
2024-01-26T22:15:13.137Z,4.82
2024-01-26T22:17:43.418Z,4.81
2024-01-26T22:20:16.614Z,4.82
2024-01-26T22:22:46.886Z,4.78
2024-01-26T22:25:17.140Z,4.88
2024-01-26T22:27:47.397Z,4.90
2024-01-26T22:30:18.332Z,4.93
2024-01-26T22:32:48.666Z,4.92
2024-01-26T22:35:21.556Z,4.85
2024-01-26T22:37:51.915Z,4.82
2024-01-26T22:40:22.318Z,4.76
2024-01-26T22:42:52.678Z,4.68
2024-01-26T22:45:23.770Z,4.59
2024-01-26T22:47:54.146Z,4.53
2024-01-26T22:50:27.118Z,4.37
2024-01-26T22:52:57.374Z,4.37
2024-01-26T22:55:27.527Z,4.37
2024-01-26T22:57:57.720Z,4.34
2024-01-26T23:00:29.350Z,4.30
2024-01-26T23:03:00.879Z,4.29
2024-01-26T23:05:33.948Z,4.29
2024-01-26T23:08:04.311Z,4.23
2024-01-26T23:10:34.718Z,4.11
2024-01-26T23:13:05.557Z,4.06
2024-01-26T23:15:35.757Z,3.98
2024-01-26T23:18:06.186Z,4.03
2024-01-26T23:20:39.213Z,4.00
2024-01-26T23:23:09.381Z,3.93
2024-01-26T23:25:39.565Z,4.10
2024-01-26T23:28:10.419Z,4.05
2024-01-26T23:30:40.788Z,4.03
2024-01-26T23:33:11.625Z,4.03
2024-01-26T23:35:44.736Z,4.00
2024-01-26T23:38:14.992Z,4.10
2024-01-26T23:40:45.280Z,4.02
2024-01-26T23:43:15.509Z,3.94
2024-01-26T23:45:45.803Z,3.91
2024-01-26T23:48:16.114Z,4.07
2024-01-26T23:50:49.017Z,4.15
2024-01-26T23:53:19.190Z,4.00
2024-01-26T23:55:50.089Z,4.02
2024-01-26T23:58:20.351Z,4.07
